createdAt,value
2022-10-12T00:01:49.301Z,33.02
2022-10-12T00:03:51.018Z,33.13
2022-10-12T00:06:10.749Z,33.12
2022-10-12T00:08:12.646Z,32.98
2022-10-12T00:10:14.278Z,33.10
2022-10-12T00:12:15.926Z,33.08
2022-10-12T00:14:17.612Z,33.05
2022-10-12T00:16:20.430Z,32.97
2022-10-12T00:18:22.238Z,33.02
2022-10-12T00:20:23.977Z,32.83
2022-10-12T00:22:25.747Z,32.87
2022-10-12T00:24:27.422Z,33.05
2022-10-12T00:26:29.352Z,32.69
2022-10-12T00:28:31.466Z,32.67
2022-10-12T00:30:33.331Z,32.88
2022-10-12T00:32:35.105Z,33.00
2022-10-12T00:34:36.873Z,32.59
2022-10-12T00:36:38.636Z,32.95
2022-10-12T00:38:40.404Z,32.83
2022-10-12T00:40:42.155Z,32.65
2022-10-12T00:42:43.909Z,33.00
2022-10-12T00:44:46.902Z,32.79
2022-10-12T00:46:48.684Z,32.87
2022-10-12T00:49:04.675Z,32.73
2022-10-12T00:51:06.432Z,32.57
2022-10-12T00:53:16.418Z,32.50
2022-10-12T00:55:19.035Z,32.77
2022-10-12T00:57:20.675Z,32.34
2022-10-12T00:59:36.569Z,32.79
2022-10-12T01:01:38.237Z,32.39
2022-10-12T01:03:39.971Z,32.75
2022-10-12T01:05:41.670Z,32.40
2022-10-12T01:07:43.552Z,32.64
2022-10-12T01:09:45.282Z,32.35
2022-10-12T01:11:46.985Z,32.27
2022-10-12T01:13:48.733Z,32.56
2022-10-12T01:16:02.241Z,32.37
2022-10-12T01:18:12.664Z,32.33
2022-10-12T01:20:36.156Z,32.59
2022-10-12T01:23:09.976Z,32.45
2022-10-12T01:25:31.828Z,32.31
2022-10-12T01:27:53.082Z,32.20
2022-10-12T01:30:16.343Z,32.29
2022-10-12T01:32:31.752Z,32.35
2022-10-12T01:34:42.573Z,32.48
2022-10-12T01:36:46.244Z,32.17
2022-10-12T01:38:57.781Z,32.07
2022-10-12T01:41:08.110Z,32.40
2022-10-12T01:43:09.778Z,32.23
2022-10-12T01:45:16.788Z,31.90
2022-10-12T01:47:18.600Z,31.97
2022-10-12T01:49:25.567Z,32.27
2022-10-12T01:52:08.670Z,32.49
2022-10-12T01:54:34.848Z,32.27
2022-10-12T01:57:08.296Z,32.14
2022-10-12T01:59:20.150Z,32.24
2022-10-12T02:01:38.545Z,32.14
2022-10-12T02:04:09.103Z,31.81
2022-10-12T02:06:13.982Z,32.06
2022-10-12T02:08:33.723Z,32.03
2022-10-12T02:11:03.647Z,31.66
2022-10-12T02:13:06.995Z,31.74
2022-10-12T02:15:09.011Z,31.75
2022-10-12T02:17:12.636Z,31.63
2022-10-12T02:19:16.492Z,31.76
2022-10-12T02:21:24.008Z,31.82
2022-10-12T02:23:25.762Z,31.85
2022-10-12T02:25:27.448Z,31.78
2022-10-12T02:27:29.108Z,31.67
2022-10-12T02:29:38.103Z,31.45
2022-10-12T02:31:45.674Z,31.37
2022-10-12T02:34:03.620Z,31.74
2022-10-12T02:36:11.640Z,31.51
2022-10-12T02:38:16.466Z,31.41
2022-10-12T02:40:26.022Z,31.75
2022-10-12T02:42:41.819Z,31.33
2022-10-12T02:44:48.467Z,31.55
2022-10-12T02:46:50.285Z,31.07
2022-10-12T02:48:53.697Z,31.12
2022-10-12T02:50:56.769Z,31.29
2022-10-12T02:52:58.522Z,31.57
2022-10-12T02:55:00.242Z,31.65
2022-10-12T02:57:02.086Z,31.58
2022-10-12T02:59:03.823Z,31.90
2022-10-12T03:01:05.693Z,31.38
2022-10-12T03:03:07.625Z,31.24
2022-10-12T03:05:09.413Z,31.47
2022-10-12T03:07:11.188Z,31.29
2022-10-12T03:09:12.907Z,31.50
2022-10-12T03:11:14.661Z,31.41
2022-10-12T03:13:16.334Z,31.88
2022-10-12T03:15:18.038Z,31.68
2022-10-12T03:17:19.663Z,31.39
2022-10-12T03:19:21.319Z,31.58
2022-10-12T03:21:22.948Z,31.73
2022-10-12T03:23:24.627Z,31.37
2022-10-12T03:25:26.361Z,31.33
2022-10-12T03:27:28.067Z,31.31
2022-10-12T03:29:29.761Z,31.30
2022-10-12T03:31:31.408Z,31.19
2022-10-12T03:33:33.139Z,30.81
2022-10-12T03:35:34.884Z,31.28
2022-10-12T03:37:36.879Z,31.64
2022-10-12T03:39:38.777Z,31.50
2022-10-12T03:41:40.459Z,30.91
2022-10-12T03:43:42.265Z,31.04
2022-10-12T03:45:48.650Z,31.66
2022-10-12T03:47:50.854Z,30.74
2022-10-12T03:49:52.545Z,30.78
2022-10-12T03:51:54.343Z,30.64
2022-10-12T03:53:55.971Z,30.85
2022-10-12T03:55:57.792Z,30.96
2022-10-12T03:57:59.690Z,30.88
2022-10-12T04:00:01.573Z,30.72
2022-10-12T04:02:03.589Z,30.83
2022-10-12T04:04:05.555Z,30.28
2022-10-12T04:06:07.526Z,30.59
2022-10-12T04:08:09.372Z,30.34
2022-10-12T04:10:12.407Z,30.28
2022-10-12T04:12:14.334Z,30.70
2022-10-12T04:14:16.081Z,30.51
2022-10-12T04:16:20.003Z,30.40
2022-10-12T04:18:21.761Z,30.33
2022-10-12T04:20:23.489Z,29.92
2022-10-12T04:22:25.266Z,30.24
2022-10-12T04:24:26.923Z,30.03
2022-10-12T04:26:28.872Z,30.84
2022-10-12T04:28:30.620Z,30.76
2022-10-12T04:30:32.324Z,30.37
2022-10-12T04:32:33.989Z,31.34
2022-10-12T04:34:35.722Z,29.52
2022-10-12T04:36:37.408Z,29.62
2022-10-12T04:38:39.155Z,29.72
2022-10-12T04:40:40.836Z,29.65
2022-10-12T04:42:42.534Z,29.63
2022-10-12T04:44:44.262Z,29.35
2022-10-12T04:48:47.478Z,29.45
2022-10-12T04:50:49.154Z,29.56
2022-10-12T04:52:50.868Z,29.36
2022-10-12T04:54:52.578Z,29.47
2022-10-12T04:56:54.318Z,29.05
2022-10-12T04:58:56.045Z,29.57
2022-10-12T05:00:57.761Z,28.73
2022-10-12T05:02:59.403Z,29.40
2022-10-12T05:05:01.048Z,29.12
2022-10-12T05:07:02.719Z,29.28
2022-10-12T05:09:04.473Z,29.14
2022-10-12T05:11:06.176Z,28.70
2022-10-12T05:13:07.835Z,28.64
2022-10-12T05:15:10.655Z,28.98
2022-10-12T05:17:12.386Z,29.06
2022-10-12T05:19:14.134Z,28.82
2022-10-12T05:21:15.954Z,28.80
2022-10-12T05:23:17.651Z,28.65
2022-10-12T05:25:19.459Z,28.62
2022-10-12T05:27:21.204Z,28.85
2022-10-12T05:29:22.898Z,28.85
2022-10-12T05:31:24.671Z,28.68
2022-10-12T05:33:26.369Z,29.15
2022-10-12T05:35:28.071Z,28.69
2022-10-12T05:37:29.797Z,28.63
2022-10-12T05:39:31.519Z,29.12
2022-10-12T05:41:33.252Z,29.00
2022-10-12T05:43:34.946Z,28.54
2022-10-12T05:45:36.637Z,29.01
2022-10-12T05:47:38.703Z,29.03
2022-10-12T05:49:40.673Z,28.94
2022-10-12T05:51:42.418Z,28.90
2022-10-12T05:53:44.133Z,28.51
2022-10-12T05:55:56.057Z,28.90
2022-10-12T05:57:57.798Z,28.48
2022-10-12T05:59:59.527Z,28.76
2022-10-12T06:02:01.240Z,28.97
2022-10-12T06:04:03.011Z,28.85
2022-10-12T06:06:04.802Z,29.12
2022-10-12T06:08:07.549Z,28.60
2022-10-12T06:10:09.511Z,28.69
2022-10-12T06:12:11.240Z,28.62
2022-10-12T06:14:13.017Z,28.44
2022-10-12T06:16:14.734Z,28.41
2022-10-12T06:18:16.745Z,28.32
2022-10-12T06:20:18.387Z,28.35
2022-10-12T06:22:20.101Z,28.19
2022-10-12T06:24:21.808Z,28.35
2022-10-12T06:26:23.486Z,28.26
2022-10-12T06:28:25.222Z,28.27
2022-10-12T06:30:26.974Z,28.19
2022-10-12T06:32:28.733Z,27.95
2022-10-12T06:34:30.479Z,28.45
2022-10-12T06:36:32.171Z,28.13
2022-10-12T06:38:33.836Z,28.29
2022-10-12T06:40:35.578Z,28.49
2022-10-12T06:42:37.431Z,28.30
2022-10-12T06:44:39.507Z,28.52
2022-10-12T06:46:41.142Z,28.68
2022-10-12T06:48:42.822Z,28.51
2022-10-12T06:50:44.612Z,28.30
2022-10-12T06:52:47.037Z,28.44
2022-10-12T06:54:48.733Z,28.20
2022-10-12T06:56:50.384Z,28.10
2022-10-12T06:58:57.905Z,28.66
2022-10-12T07:01:02.677Z,28.46
2022-10-12T07:03:04.393Z,28.65
2022-10-12T07:05:07.018Z,28.64
2022-10-12T07:07:08.758Z,28.84
2022-10-12T07:09:10.523Z,28.67
2022-10-12T07:11:12.969Z,28.77
2022-10-12T07:13:14.849Z,28.32
2022-10-12T07:15:16.601Z,28.30
2022-10-12T07:17:18.245Z,28.69
2022-10-12T07:19:19.915Z,28.84
2022-10-12T07:21:21.616Z,28.29
2022-10-12T07:23:23.273Z,28.64
2022-10-12T07:25:25.020Z,28.69
2022-10-12T07:27:26.699Z,28.57
2022-10-12T07:29:30.578Z,28.84
2022-10-12T07:31:32.271Z,28.83
2022-10-12T07:33:34.222Z,28.88
2022-10-12T07:35:43.305Z,28.63
2022-10-12T07:37:53.408Z,28.45
2022-10-12T07:39:55.152Z,28.75
2022-10-12T07:41:56.934Z,28.47
2022-10-12T07:43:58.845Z,28.85
2022-10-12T07:46:00.560Z,28.40
2022-10-12T07:48:02.354Z,28.32
2022-10-12T07:50:04.287Z,28.39
2022-10-12T07:52:05.954Z,28.54
2022-10-12T07:54:07.813Z,28.45
2022-10-12T07:56:09.700Z,28.32
2022-10-12T07:58:11.354Z,28.68
2022-10-12T08:00:13.369Z,28.59
2022-10-12T08:02:15.092Z,28.29
2022-10-12T08:04:16.856Z,28.83
2022-10-12T08:06:20.562Z,28.40
2022-10-12T08:08:22.238Z,28.75
2022-10-12T08:10:25.153Z,28.85
2022-10-12T08:12:26.818Z,28.66
2022-10-12T08:14:29.731Z,28.74
2022-10-12T08:16:32.243Z,28.83
2022-10-12T08:18:33.982Z,28.44
2022-10-12T08:20:35.687Z,28.64
2022-10-12T08:22:37.440Z,28.41
2022-10-12T08:24:39.173Z,28.34
2022-10-12T08:26:40.850Z,28.65
2022-10-12T08:28:42.636Z,28.85
2022-10-12T08:30:44.399Z,28.36
2022-10-12T08:32:46.212Z,28.48
2022-10-12T08:34:47.887Z,28.64
2022-10-12T08:36:50.378Z,28.47
2022-10-12T08:38:53.157Z,28.95
2022-10-12T08:41:42.540Z,28.68
2022-10-12T08:44:05.381Z,29.01
2022-10-12T08:46:07.138Z,28.84
2022-10-12T08:48:13.188Z,28.67
2022-10-12T08:50:36.965Z,28.90
2022-10-12T08:52:42.786Z,28.53
2022-10-12T08:54:44.521Z,28.94
2022-10-12T08:56:46.246Z,28.92
2022-10-12T08:58:48.720Z,28.84
2022-10-12T09:00:59.218Z,29.00
2022-10-12T09:03:23.777Z,28.82
2022-10-12T09:05:37.270Z,28.62
2022-10-12T09:07:51.077Z,28.83
2022-10-12T09:10:25.992Z,28.84
2022-10-12T09:12:42.512Z,28.73
2022-10-12T09:14:44.287Z,28.68
2022-10-12T09:16:47.071Z,28.89
2022-10-12T09:18:52.541Z,28.62
2022-10-12T09:20:54.206Z,28.87
2022-10-12T09:22:58.955Z,28.52
2022-10-12T09:25:00.726Z,28.90
2022-10-12T09:27:13.381Z,29.04
2022-10-12T09:29:27.662Z,28.89
2022-10-12T09:31:40.996Z,28.66
2022-10-12T09:33:54.945Z,29.08
2022-10-12T09:35:56.704Z,28.91
2022-10-12T09:37:58.425Z,28.68
2022-10-12T09:40:00.506Z,28.71
2022-10-12T09:42:02.786Z,29.14
2022-10-12T09:44:05.044Z,28.81
2022-10-12T09:46:06.684Z,28.94
2022-10-12T09:48:16.303Z,28.92
2022-10-12T09:50:17.960Z,28.89
2022-10-12T09:52:23.303Z,29.15
2022-10-12T09:54:24.976Z,29.18
2022-10-12T09:56:28.603Z,29.40
2022-10-12T09:58:30.255Z,28.84
2022-10-12T10:00:33.674Z,29.19
2022-10-12T10:02:35.441Z,29.29
2022-10-12T10:04:39.985Z,28.96
2022-10-12T10:06:45.706Z,29.04
2022-10-12T10:08:47.487Z,29.16
2022-10-12T10:10:59.460Z,28.91
2022-10-12T10:13:01.346Z,29.46
2022-10-12T10:15:03.026Z,29.32
2022-10-12T10:17:04.696Z,28.91
2022-10-12T10:19:06.373Z,29.19
2022-10-12T10:21:08.890Z,28.97
2022-10-12T10:23:31.267Z,28.85
2022-10-12T10:25:33.688Z,28.83
2022-10-12T10:27:35.322Z,29.19
2022-10-12T10:29:41.131Z,28.75
2022-10-12T10:31:43.223Z,28.87
2022-10-12T10:33:45.005Z,28.93
2022-10-12T10:35:58.777Z,28.79
2022-10-12T10:38:00.920Z,29.06
2022-10-12T10:40:02.604Z,29.12
2022-10-12T10:42:11.279Z,29.06
2022-10-12T10:44:26.756Z,28.91
2022-10-12T10:46:29.945Z,28.89
2022-10-12T10:48:49.031Z,29.04
2022-10-12T10:50:59.166Z,28.73
2022-10-12T10:53:02.756Z,29.33
2022-10-12T10:55:10.554Z,29.30
2022-10-12T10:57:18.785Z,29.17
2022-10-12T10:59:30.566Z,29.06
2022-10-12T11:01:52.799Z,28.79
2022-10-12T11:04:07.632Z,28.84
2022-10-12T11:06:14.283Z,29.27
2022-10-12T11:08:25.811Z,29.38
2022-10-12T11:10:42.049Z,29.31
2022-10-12T11:12:45.555Z,29.20
2022-10-12T11:14:51.975Z,29.15
2022-10-12T11:16:57.698Z,29.49
2022-10-12T11:19:10.861Z,29.30
2022-10-12T11:21:18.164Z,29.18
2022-10-12T11:23:34.428Z,29.39
2022-10-12T11:25:40.311Z,29.33
2022-10-12T11:27:42.118Z,29.47
2022-10-12T11:29:43.943Z,29.27
2022-10-12T11:31:53.097Z,29.22
2022-10-12T11:33:54.818Z,29.38
2022-10-12T11:35:57.527Z,31.42
2022-10-12T11:38:06.581Z,29.39
2022-10-12T11:40:16.690Z,29.64
2022-10-12T11:42:31.676Z,30.45
2022-10-12T11:44:44.119Z,31.40
2022-10-12T11:46:58.169Z,29.12
2022-10-12T11:49:13.507Z,29.28
2022-10-12T11:51:15.259Z,29.66
2022-10-12T11:53:42.962Z,29.79
2022-10-12T11:56:01.910Z,29.69
2022-10-12T11:58:55.906Z,29.51
2022-10-12T12:01:26.675Z,29.72
2022-10-12T12:03:43.538Z,29.74
2022-10-12T12:05:45.460Z,29.82
2022-10-12T12:07:50.519Z,29.82
2022-10-12T12:09:52.455Z,30.88
2022-10-12T12:12:08.241Z,30.90
2022-10-12T12:14:21.811Z,30.26
2022-10-12T12:16:29.435Z,29.74
2022-10-12T12:18:32.255Z,30.30
2022-10-12T12:20:43.138Z,30.07
2022-10-12T12:22:52.132Z,32.05
2022-10-12T12:25:08.632Z,29.80
2022-10-12T12:27:39.397Z,29.72
2022-10-12T12:29:41.602Z,30.49
2022-10-12T12:31:43.621Z,29.51
2022-10-12T12:33:47.079Z,29.07
2022-10-12T12:35:59.354Z,29.23
2022-10-12T12:38:12.949Z,29.22
2022-10-12T12:40:21.734Z,29.96
2022-10-12T12:42:25.140Z,29.56
2022-10-12T12:44:47.074Z,31.08
2022-10-12T12:46:54.581Z,29.83
2022-10-12T12:48:56.721Z,29.61
2022-10-12T12:50:58.527Z,29.60
2022-10-12T12:53:13.136Z,29.70
2022-10-12T12:55:17.780Z,31.51
2022-10-12T12:57:40.322Z,29.63
2022-10-12T13:00:08.807Z,30.18
2022-10-12T13:02:40.943Z,29.70
2022-10-12T13:04:50.563Z,29.81
2022-10-12T13:07:20.076Z,29.88
2022-10-12T13:09:24.693Z,29.96
2022-10-12T13:11:44.729Z,30.05
2022-10-12T13:14:04.378Z,30.60
2022-10-12T13:17:30.733Z,30.53
2022-10-12T13:19:06.531Z,30.43
2022-10-12T13:21:10.131Z,30.76
2022-10-12T13:23:14.685Z,30.69
2022-10-12T13:25:38.075Z,32.27
2022-10-12T13:27:47.885Z,31.48
2022-10-12T13:29:55.991Z,30.82
2022-10-12T13:32:01.597Z,30.31
2022-10-12T13:34:15.004Z,30.09
2022-10-12T13:36:32.978Z,30.18
2022-10-12T13:38:35.865Z,30.37
2022-10-12T13:40:39.017Z,30.37
2022-10-12T13:42:40.675Z,29.74
2022-10-12T13:44:42.597Z,31.24
2022-10-12T13:46:45.862Z,32.06
2022-10-12T13:49:05.481Z,31.09
2022-10-12T13:51:22.272Z,31.61
2022-10-12T13:53:24.292Z,31.72
2022-10-12T13:55:26.243Z,31.95
2022-10-12T13:57:41.498Z,31.02
2022-10-12T13:59:43.838Z,30.57
2022-10-12T14:01:56.704Z,30.75
2022-10-12T14:04:05.209Z,31.91
2022-10-12T14:06:07.066Z,31.02
2022-10-12T14:08:14.393Z,31.86
2022-10-12T14:10:20.239Z,31.76
2022-10-12T14:12:25.432Z,31.35
2022-10-12T14:14:35.513Z,30.91
2022-10-12T14:16:37.282Z,32.48
2022-10-12T14:18:43.484Z,31.37
2022-10-12T14:20:45.653Z,31.20
2022-10-12T14:22:50.415Z,30.93
2022-10-12T14:25:22.880Z,31.65
2022-10-12T14:27:27.519Z,31.25
2022-10-12T14:29:36.319Z,31.56
2022-10-12T14:31:52.258Z,31.54
2022-10-12T14:33:54.246Z,31.64
2022-10-12T14:36:22.388Z,31.73
2022-10-12T14:38:38.883Z,31.70
2022-10-12T14:40:40.545Z,31.32
2022-10-12T14:42:42.239Z,31.51
2022-10-12T14:44:45.476Z,31.31
2022-10-12T14:47:01.344Z,31.15
2022-10-12T14:49:03.126Z,31.25
2022-10-12T14:51:04.940Z,30.67
2022-10-12T14:53:10.062Z,32.18
2022-10-12T14:55:16.292Z,30.94
2022-10-12T14:57:18.285Z,31.64
2022-10-12T14:59:20.010Z,31.02
2022-10-12T15:01:22.590Z,31.25
2022-10-12T15:03:24.453Z,31.82
2022-10-12T15:05:27.139Z,31.52
2022-10-12T15:07:33.017Z,31.39
2022-10-12T15:09:34.746Z,30.78
2022-10-12T15:11:36.484Z,31.02
2022-10-12T15:13:38.442Z,31.01
2022-10-12T15:15:46.062Z,30.91
2022-10-12T15:17:47.728Z,30.75
2022-10-12T15:19:50.108Z,31.29
2022-10-12T15:21:51.759Z,30.25
2022-10-12T15:23:53.507Z,30.30
2022-10-12T15:25:55.628Z,30.78
2022-10-12T15:27:57.346Z,30.53
2022-10-12T15:29:59.104Z,30.84
2022-10-12T15:32:00.874Z,29.26
2022-10-12T15:34:02.864Z,29.75
2022-10-12T15:36:04.634Z,29.73
2022-10-12T15:38:06.373Z,29.19
2022-10-12T15:40:11.481Z,28.72
2022-10-12T15:42:13.175Z,28.69
2022-10-12T15:44:15.316Z,29.00
2022-10-12T15:46:18.082Z,28.39
2022-10-12T15:48:19.803Z,28.41
2022-10-12T15:50:27.217Z,29.34
2022-10-12T15:52:29.348Z,29.69
2022-10-12T15:54:31.075Z,29.16
2022-10-12T15:56:32.777Z,28.70
2022-10-12T15:58:34.607Z,28.74
2022-10-12T16:00:36.550Z,29.23
2022-10-12T16:02:38.287Z,29.90
2022-10-12T16:04:40.082Z,30.83
2022-10-12T16:06:41.862Z,30.09
2022-10-12T16:08:43.683Z,29.58
2022-10-12T16:10:45.453Z,29.30
2022-10-12T16:12:48.849Z,29.20
2022-10-12T16:14:50.539Z,29.44
2022-10-12T16:16:52.407Z,30.10
2022-10-12T16:18:54.209Z,30.27
2022-10-12T16:20:56.192Z,30.28
2022-10-12T16:22:58.480Z,29.42
2022-10-12T16:25:00.212Z,29.33
2022-10-12T16:27:02.955Z,29.30
2022-10-12T16:29:04.747Z,29.62
2022-10-12T16:31:14.755Z,29.24
2022-10-12T16:33:16.705Z,29.05
2022-10-12T16:35:18.797Z,29.21
2022-10-12T16:37:20.641Z,29.07
2022-10-12T16:39:22.576Z,29.06
2022-10-12T16:41:24.293Z,29.20
2022-10-12T16:43:26.128Z,29.32
2022-10-12T16:45:27.879Z,29.42
2022-10-12T16:47:29.597Z,30.22
2022-10-12T16:49:31.658Z,29.48
2022-10-12T16:51:33.650Z,28.94
2022-10-12T16:53:35.507Z,29.00
2022-10-12T16:55:38.213Z,29.08
2022-10-12T16:57:40.130Z,29.53
2022-10-12T16:59:41.891Z,28.60
2022-10-12T17:01:44.253Z,28.76
2022-10-12T17:03:46.078Z,28.74
2022-10-12T17:05:47.894Z,28.55
2022-10-12T17:07:49.690Z,28.46
2022-10-12T17:09:51.320Z,28.51
2022-10-12T17:11:53.329Z,28.47
2022-10-12T17:13:55.783Z,28.34
2022-10-12T17:15:58.753Z,28.77
2022-10-12T17:18:00.492Z,29.16
2022-10-12T17:20:04.607Z,28.60
2022-10-12T17:22:08.114Z,28.05
2022-10-12T17:24:12.957Z,28.54
2022-10-12T17:26:14.668Z,28.43
2022-10-12T17:28:17.003Z,29.56
2022-10-12T17:30:18.706Z,28.92
2022-10-12T17:32:21.587Z,28.67
2022-10-12T17:34:28.606Z,28.86
2022-10-12T17:36:30.324Z,28.74
2022-10-12T17:38:32.271Z,28.39
2022-10-12T17:40:34.015Z,28.75
2022-10-12T17:42:37.357Z,28.85
2022-10-12T17:44:39.501Z,28.64
2022-10-12T17:46:42.722Z,29.24
2022-10-12T17:48:44.878Z,28.40
2022-10-12T17:50:46.899Z,28.65
2022-10-12T17:52:48.976Z,28.38
2022-10-12T17:54:51.013Z,28.48
2022-10-12T17:56:54.539Z,28.60
2022-10-12T17:58:57.739Z,29.18
2022-10-12T18:01:07.154Z,28.39
2022-10-12T18:03:08.922Z,28.14
2022-10-12T18:05:10.687Z,28.76
2022-10-12T18:07:12.454Z,30.02
2022-10-12T18:09:14.246Z,30.77
2022-10-12T18:11:16.590Z,31.48
2022-10-12T18:13:18.295Z,31.91
2022-10-12T18:15:20.094Z,31.47
2022-10-12T18:17:21.794Z,31.53
2022-10-12T18:19:23.722Z,31.51
2022-10-12T18:21:27.913Z,31.59
2022-10-12T18:23:29.845Z,31.63
2022-10-12T18:25:32.728Z,31.75
2022-10-12T18:27:34.424Z,31.72
2022-10-12T18:29:36.880Z,31.87
2022-10-12T18:31:38.538Z,32.16
2022-10-12T18:33:40.265Z,31.99
2022-10-12T18:35:41.944Z,32.66
2022-10-12T18:37:43.688Z,32.39
2022-10-12T18:39:45.640Z,31.87
2022-10-12T18:41:49.981Z,32.40
2022-10-12T18:43:54.180Z,32.01
2022-10-12T18:45:57.068Z,32.42
2022-10-12T18:47:59.495Z,32.32
2022-10-12T18:50:01.202Z,32.05
2022-10-12T18:52:03.004Z,32.07
2022-10-12T18:54:04.969Z,32.27
2022-10-12T18:56:06.940Z,32.52
2022-10-12T18:58:08.756Z,32.58
2022-10-12T19:00:10.765Z,32.56
2022-10-12T19:02:12.434Z,32.28
2022-10-12T19:04:14.256Z,32.39
2022-10-12T19:06:22.236Z,32.27
2022-10-12T19:08:24.028Z,32.15
2022-10-12T19:10:25.778Z,32.35
2022-10-12T19:12:27.485Z,32.60
2022-10-12T19:14:29.234Z,32.28
2022-10-12T19:16:31.074Z,32.42
2022-10-12T19:18:32.963Z,32.77
2022-10-12T19:20:36.509Z,32.55
2022-10-12T19:22:38.261Z,32.71
2022-10-12T19:24:40.030Z,32.51
2022-10-12T19:26:42.164Z,32.54
2022-10-12T19:29:11.266Z,32.44
2022-10-12T19:31:15.465Z,32.60
2022-10-12T19:33:17.205Z,32.36
2022-10-12T19:35:18.815Z,32.24
2022-10-12T19:37:20.545Z,32.25
2022-10-12T19:39:23.168Z,32.50
2022-10-12T19:41:25.571Z,32.30
2022-10-12T19:43:27.477Z,32.48
2022-10-12T19:45:29.201Z,32.25
2022-10-12T19:47:31.005Z,32.71
2022-10-12T19:49:36.575Z,32.65
2022-10-12T19:51:39.599Z,32.37
2022-10-12T19:53:41.552Z,32.71
2022-10-12T19:55:43.458Z,32.83
2022-10-12T19:57:45.253Z,32.57
2022-10-12T19:59:52.842Z,32.38
2022-10-12T20:01:54.627Z,32.85
2022-10-12T20:03:56.511Z,32.63
2022-10-12T20:05:59.633Z,32.55
2022-10-12T20:08:01.398Z,32.58
2022-10-12T20:10:03.678Z,32.70
2022-10-12T20:12:05.578Z,32.59
2022-10-12T20:14:07.419Z,32.84
2022-10-12T20:16:09.133Z,32.81
2022-10-12T20:18:10.850Z,33.00
2022-10-12T20:20:12.713Z,32.86
2022-10-12T20:22:14.501Z,32.61
2022-10-12T20:24:16.290Z,32.99
2022-10-12T20:26:20.738Z,32.99
2022-10-12T20:28:22.505Z,33.26
2022-10-12T20:30:24.275Z,33.15
2022-10-12T20:32:26.008Z,32.69
2022-10-12T20:34:27.767Z,32.84
2022-10-12T20:36:29.999Z,32.94
2022-10-12T20:38:31.721Z,32.91
2022-10-12T20:40:33.547Z,32.86
2022-10-12T20:42:43.858Z,32.79
2022-10-12T20:44:48.349Z,32.80
2022-10-12T20:46:53.282Z,33.17
2022-10-12T20:51:39.136Z,33.08
2022-10-12T20:53:40.847Z,33.25
2022-10-12T20:55:42.591Z,32.90
2022-10-12T20:57:44.273Z,33.17
2022-10-12T20:59:46.063Z,32.76
2022-10-12T21:01:47.967Z,32.90
2022-10-12T21:03:49.654Z,33.17
2022-10-12T21:05:51.354Z,32.89
2022-10-12T21:07:53.103Z,33.36
2022-10-12T21:09:54.829Z,33.23
2022-10-12T21:11:56.708Z,33.25
2022-10-12T21:13:58.467Z,32.90
2022-10-12T21:16:00.200Z,32.83
2022-10-12T21:18:01.877Z,32.94
2022-10-12T21:20:03.709Z,33.02
2022-10-12T21:22:05.414Z,33.29
2022-10-12T21:24:07.285Z,33.29
2022-10-12T21:26:13.407Z,33.11
2022-10-12T21:28:15.255Z,33.39
2022-10-12T21:30:16.987Z,33.01
2022-10-12T21:32:19.148Z,33.42
2022-10-12T21:34:21.033Z,33.15
2022-10-12T21:36:24.372Z,33.10
2022-10-12T21:38:26.127Z,33.20
2022-10-12T21:40:27.877Z,33.42
2022-10-12T21:42:29.730Z,33.27
2022-10-12T21:44:31.412Z,33.64
2022-10-12T21:46:34.108Z,33.09
2022-10-12T21:48:36.005Z,33.51
2022-10-12T21:50:37.748Z,33.24
2022-10-12T21:52:39.565Z,33.64
2022-10-12T21:54:41.269Z,33.14
2022-10-12T21:56:42.989Z,33.63
2022-10-12T21:58:44.898Z,33.31
2022-10-12T22:00:46.653Z,33.27
2022-10-12T22:02:48.385Z,33.33
2022-10-12T22:04:50.129Z,33.60
2022-10-12T22:06:51.830Z,33.31
2022-10-12T22:08:55.971Z,33.33
2022-10-12T22:10:57.684Z,33.65
2022-10-12T22:12:59.414Z,33.53
2022-10-12T22:15:01.157Z,33.64
2022-10-12T22:17:02.864Z,33.36
2022-10-12T22:19:06.376Z,33.60
2022-10-12T22:21:12.832Z,33.40
2022-10-12T22:23:14.572Z,33.69
2022-10-12T22:25:16.317Z,33.42
2022-10-12T22:27:18.285Z,33.38
2022-10-12T22:29:19.922Z,33.36
2022-10-12T22:31:22.224Z,33.18
2022-10-12T22:33:24.051Z,33.33
2022-10-12T22:35:25.755Z,33.44
2022-10-12T22:37:27.478Z,33.15
2022-10-12T22:39:29.201Z,32.94
2022-10-12T22:41:30.955Z,32.17
2022-10-12T22:43:33.047Z,32.35
2022-10-12T22:45:34.721Z,32.28
2022-10-12T22:47:36.351Z,32.37
2022-10-12T22:49:38.051Z,32.59
2022-10-12T22:51:39.842Z,32.78
2022-10-12T22:53:41.636Z,32.85
2022-10-12T22:55:43.642Z,32.76
2022-10-12T22:57:45.316Z,32.63
2022-10-12T22:59:47.044Z,32.56
2022-10-12T23:01:48.709Z,32.70
2022-10-12T23:03:50.476Z,32.42
2022-10-12T23:05:52.404Z,32.56
2022-10-12T23:07:54.162Z,32.86
2022-10-12T23:09:55.817Z,32.73
2022-10-12T23:11:57.518Z,32.71
2022-10-12T23:13:59.354Z,32.89
2022-10-12T23:16:05.577Z,32.99
2022-10-12T23:18:07.318Z,33.03
2022-10-12T23:20:10.619Z,33.10
2022-10-12T23:22:12.234Z,33.07
2022-10-12T23:24:13.940Z,32.79
2022-10-12T23:26:17.737Z,32.90
2022-10-12T23:28:19.556Z,32.92
2022-10-12T23:30:21.247Z,33.19
2022-10-12T23:32:22.988Z,33.18
2022-10-12T23:34:24.678Z,32.82
2022-10-12T23:36:26.399Z,33.33
2022-10-12T23:38:31.818Z,33.32
2022-10-12T23:40:36.681Z,33.07
2022-10-12T23:42:38.342Z,33.24
2022-10-12T23:44:40.102Z,33.12
2022-10-12T23:46:41.824Z,33.17
2022-10-12T23:48:43.497Z,33.42
2022-10-12T23:50:45.153Z,33.14
2022-10-12T23:52:46.959Z,33.39
2022-10-12T23:54:48.656Z,33.04
2022-10-12T23:56:50.318Z,33.37
2022-10-12T23:58:52.245Z,33.50
